createdAt,value
2018-12-22T01:50:57.845Z,10.36
2018-12-22T02:30:15.197Z,8.94
2018-12-22T04:01:52.465Z,8.37
2018-12-22T04:04:34.541Z,8.44
2018-12-22T04:13:27.636Z,8.14
2018-12-22T04:52:57.565Z,7.58
2018-12-22T04:55:33.085Z,7.70
2018-12-22T04:58:02.486Z,7.52
2018-12-22T05:00:32.218Z,7.67
2018-12-22T05:03:02.299Z,7.76
2018-12-22T05:05:32.090Z,7.75
2018-12-22T05:08:01.510Z,7.56
2018-12-22T05:10:31.242Z,7.66
2018-12-22T05:15:47.014Z,7.84
2018-12-22T05:18:16.429Z,7.79
2018-12-22T05:20:46.202Z,7.79
2018-12-22T05:23:16.611Z,7.77
2018-12-22T05:25:46.430Z,7.74
2018-12-22T05:28:15.874Z,7.90
2018-12-22T05:30:45.694Z,7.94
2018-12-22T05:33:15.118Z,7.98
2018-12-22T05:35:44.906Z,8.01
2018-12-22T05:38:20.911Z,8.10
2018-12-22T05:41:01.043Z,7.99
2018-12-22T05:43:36.307Z,7.98
2018-12-22T05:49:25.414Z,7.94
2018-12-22T05:52:00.958Z,7.87
2018-12-22T05:54:42.565Z,7.82
2018-12-22T05:57:18.369Z,7.81
2018-12-22T06:03:04.408Z,7.91
2018-12-22T06:05:36.403Z,7.85
2018-12-22T06:08:09.507Z,7.78
2018-12-22T06:10:45.773Z,7.50
2018-12-22T06:13:27.210Z,7.58
2018-12-22T06:16:00.325Z,7.64
2018-12-22T06:18:40.336Z,7.48
2018-12-22T06:24:26.136Z,7.60
2018-12-22T06:26:59.037Z,7.64
2018-12-22T06:29:31.064Z,7.53
2018-12-22T06:32:10.499Z,7.57
2018-12-22T06:34:43.833Z,7.48
2018-12-22T06:40:30.650Z,7.38
2018-12-22T06:43:12.819Z,7.22
2018-12-22T06:45:43.377Z,7.33
2018-12-22T06:48:13.158Z,7.53
2018-12-22T06:50:42.865Z,7.56
2018-12-22T06:53:12.571Z,7.63
2018-12-22T06:55:42.297Z,7.71
2018-12-22T06:58:11.636Z,7.50
2018-12-22T07:00:41.050Z,7.47
2018-12-22T07:03:11.004Z,7.51
2018-12-22T07:05:41.720Z,7.49
2018-12-22T07:08:13.208Z,7.39
2018-12-22T07:10:43.249Z,7.39
2018-12-22T07:13:28.810Z,7.53
2018-12-22T07:15:59.317Z,7.70
2018-12-22T07:18:41.226Z,7.65
2018-12-22T07:21:18.205Z,7.73
2018-12-22T07:23:48.406Z,7.62
2018-12-22T07:26:18.267Z,7.57
2018-12-22T07:28:48.785Z,7.91
2018-12-22T07:31:18.164Z,7.84
2018-12-22T07:33:47.661Z,8.05
2018-12-22T07:42:21.415Z,8.13
2018-12-22T07:47:51.196Z,8.38
2018-12-22T07:50:33.010Z,8.41
2018-12-22T07:56:03.292Z,8.03
2018-12-22T08:01:32.536Z,8.53
2018-12-22T08:04:01.968Z,8.56
2018-12-22T08:06:32.515Z,8.54
2018-12-22T08:12:21.832Z,8.71
2018-12-22T08:18:06.113Z,8.83
2018-12-22T08:20:44.435Z,8.83
2018-12-22T08:23:18.121Z,8.87
2018-12-22T08:25:59.696Z,8.86
2018-12-22T08:28:29.448Z,8.96
2018-12-22T08:31:02.730Z,8.97
2018-12-22T08:33:44.358Z,8.99
2018-12-22T08:36:38.160Z,9.07
2018-12-22T08:39:13.462Z,9.03
2018-12-22T08:41:46.339Z,9.04
2018-12-22T08:53:37.259Z,8.86
2018-12-22T08:56:12.766Z,8.82
2018-12-22T08:59:07.006Z,8.92
2018-12-22T09:01:42.483Z,9.02
2018-12-22T09:56:07.235Z,9.17
2018-12-22T10:01:42.784Z,9.13
2018-12-22T10:07:20.282Z,9.00
2018-12-22T10:09:56.198Z,8.94
2018-12-22T10:15:32.824Z,8.80
2018-12-22T10:18:02.901Z,8.83
2018-12-22T10:20:32.862Z,8.82
2018-12-22T10:23:02.618Z,8.70
2018-12-22T10:25:32.431Z,8.65
2018-12-22T10:31:08.846Z,8.49
2018-12-22T10:33:38.707Z,8.45
2018-12-22T10:36:08.472Z,8.46
2018-12-22T10:38:52.137Z,8.43
2018-12-22T10:41:22.710Z,8.46
2018-12-22T10:43:58.351Z,8.48
2018-12-22T10:46:29.916Z,8.50
2018-12-22T10:49:00.020Z,8.57
2018-12-22T10:51:30.131Z,8.63
2018-12-22T10:54:00.279Z,8.63
2018-12-22T10:56:38.780Z,8.61
2018-12-22T10:59:13.777Z,8.65
2018-12-22T11:01:45.042Z,8.58
2018-12-22T11:04:16.561Z,8.60
2018-12-22T11:06:46.678Z,8.67
2018-12-22T11:09:21.040Z,8.61
2018-12-22T11:11:51.505Z,8.66
2018-12-22T11:14:23.535Z,8.75
2018-12-22T11:16:54.306Z,8.77
2018-12-22T11:19:24.421Z,8.75
2018-12-22T11:21:55.154Z,8.76
2018-12-22T11:24:24.979Z,8.70
2018-12-22T11:26:54.805Z,8.68
2018-12-22T11:29:25.097Z,8.67
2018-12-22T11:31:57.770Z,8.64
2018-12-22T11:34:28.585Z,8.64
2018-12-22T11:37:00.717Z,8.61
2018-12-22T11:39:31.229Z,8.63
2018-12-22T11:42:02.525Z,8.62
2018-12-22T11:44:32.447Z,8.57
2018-12-22T11:47:12.330Z,8.52
2018-12-22T11:49:45.169Z,8.49
2018-12-22T11:52:15.733Z,8.48
2018-12-22T11:54:46.241Z,8.43
2018-12-22T11:57:16.752Z,8.44
2018-12-22T11:59:50.667Z,8.35
2018-12-22T12:02:21.884Z,8.33
2018-12-22T12:04:52.652Z,8.25
2018-12-22T12:07:23.950Z,8.25
2018-12-22T12:09:55.362Z,8.19
2018-12-22T12:12:28.255Z,8.29
2018-12-22T12:15:00.297Z,8.32
2018-12-22T12:20:36.861Z,8.30
2018-12-22T12:23:19.525Z,8.27
2018-12-22T12:39:28.373Z,8.39
2018-12-22T12:44:46.264Z,8.44
2018-12-22T12:47:16.887Z,8.48
2018-12-22T12:49:47.711Z,8.46
2018-12-22T12:52:17.541Z,8.46
2018-12-22T12:54:48.720Z,8.41
2018-12-22T12:57:19.227Z,8.42
2018-12-22T12:59:48.987Z,8.46
2018-12-22T13:02:19.860Z,8.43
2018-12-22T13:04:49.325Z,8.37
2018-12-22T13:07:19.138Z,8.32
2018-12-22T13:09:49.458Z,8.27
2018-12-22T13:12:25.141Z,8.20
2018-12-22T13:14:54.850Z,8.16
2018-12-22T13:17:25.352Z,8.08
2018-12-22T13:19:55.045Z,7.65
2018-12-22T13:22:24.910Z,7.63
2018-12-22T13:24:54.268Z,7.62
2018-12-22T13:27:24.144Z,7.51
2018-12-22T13:29:53.513Z,7.53
2018-12-22T13:35:23.509Z,7.45
2018-12-22T13:37:54.263Z,7.48
2018-12-22T13:40:24.829Z,7.46
2018-12-22T13:42:54.199Z,7.45
2018-12-22T13:45:24.500Z,7.43
2018-12-22T13:48:00.008Z,7.39
2018-12-22T13:50:34.519Z,7.46
2018-12-22T13:53:05.258Z,7.43
2018-12-22T13:55:35.272Z,7.43
2018-12-22T13:58:05.864Z,7.40
2018-12-22T14:00:46.394Z,7.35
2018-12-22T14:03:21.690Z,7.30
2018-12-22T14:05:53.888Z,7.31
2018-12-22T14:08:24.525Z,7.28
2018-12-22T14:10:55.034Z,7.26
2018-12-22T14:13:25.233Z,7.23
2018-12-22T14:16:02.407Z,7.27
2018-12-22T14:18:38.141Z,7.23
2018-12-22T14:21:12.641Z,7.26
2018-12-22T14:24:11.057Z,7.29
2018-12-22T14:26:41.094Z,7.22
2018-12-22T14:29:11.161Z,7.20
2018-12-22T14:31:41.352Z,7.16
2018-12-22T14:37:12.712Z,7.18
2018-12-22T14:39:47.757Z,7.18
2018-12-22T14:42:18.465Z,7.20
2018-12-22T14:44:48.212Z,7.18
2018-12-22T14:47:17.960Z,7.14
2018-12-22T14:49:52.793Z,7.15
2018-12-22T14:52:23.580Z,7.18
2018-12-22T14:54:58.905Z,7.19
2018-12-22T14:57:44.701Z,7.19
2018-12-22T15:00:15.780Z,7.11
2018-12-22T15:02:49.604Z,7.10
2018-12-22T15:05:22.116Z,7.06
2018-12-22T15:07:57.528Z,7.07
2018-12-22T15:10:28.311Z,7.06
2018-12-22T15:13:04.172Z,7.04
2018-12-22T15:15:45.758Z,7.05
2018-12-22T15:18:21.415Z,6.99
2018-12-22T15:20:55.600Z,7.01
2018-12-22T15:38:53.724Z,6.90
2018-12-22T15:44:29.571Z,6.87
2018-12-22T15:47:11.941Z,6.86
2018-12-22T15:52:41.205Z,6.86
2018-12-22T15:55:10.939Z,6.92
2018-12-22T15:57:46.539Z,6.87
2018-12-22T16:00:34.811Z,6.81
2018-12-22T16:03:19.217Z,6.90
2018-12-22T16:05:59.614Z,6.85
2018-12-22T16:08:31.105Z,6.93
2018-12-22T16:14:00.385Z,6.93
2018-12-22T16:16:54.270Z,6.89
2018-12-22T16:19:37.723Z,6.88
2018-12-22T16:22:11.618Z,6.86
2018-12-22T16:27:49.167Z,6.77
2018-12-22T16:33:40.207Z,6.69
2018-12-22T16:36:20.188Z,6.72
2018-12-22T16:39:27.345Z,6.70
2018-12-22T18:08:05.556Z,6.65
2018-12-22T18:10:41.396Z,6.66
2018-12-22T18:13:33.678Z,6.72
2018-12-22T18:16:03.060Z,6.72
2018-12-22T18:18:32.800Z,6.72
2018-12-22T18:21:02.511Z,6.63
2018-12-22T18:23:32.809Z,6.61
2018-12-22T18:26:02.559Z,6.64
2018-12-22T18:28:31.907Z,6.65
2018-12-22T18:31:13.003Z,6.64
2018-12-22T18:33:42.669Z,6.59
2018-12-22T18:36:12.457Z,6.54
2018-12-22T18:38:41.871Z,6.53
2018-12-22T18:41:17.429Z,6.56
2018-12-22T18:43:53.881Z,6.51
2018-12-22T18:46:23.730Z,6.49
2018-12-22T18:48:59.001Z,6.48
2018-12-22T18:51:35.054Z,6.41
2018-12-22T18:54:08.495Z,6.39
2018-12-22T18:56:38.204Z,6.41
2018-12-22T18:59:08.057Z,6.41
2018-12-22T19:01:47.281Z,6.44
2018-12-22T19:04:21.273Z,6.36
2018-12-22T19:09:58.603Z,6.30
2018-12-22T19:12:28.581Z,6.31
2018-12-22T19:14:59.367Z,6.33
2018-12-22T19:17:32.587Z,6.31
2018-12-22T19:20:02.388Z,6.33
2018-12-22T19:22:31.746Z,6.31
2018-12-22T19:25:01.580Z,6.35
2018-12-22T19:33:26.383Z,6.40
2018-12-22T19:35:59.889Z,6.40
2018-12-22T19:38:39.286Z,6.43
2018-12-22T19:41:08.714Z,6.35
2018-12-22T19:43:38.418Z,6.32
2018-12-22T19:46:24.710Z,6.28
2018-12-22T19:48:55.055Z,6.27
2018-12-22T19:51:49.524Z,6.29
2018-12-22T19:54:20.428Z,6.27
2018-12-22T19:56:49.948Z,6.27
2018-12-22T20:02:52.502Z,6.28
2018-12-22T20:17:52.977Z,6.35
2018-12-22T20:20:29.570Z,6.36
2018-12-22T20:23:18.639Z,6.37
2018-12-22T20:38:18.807Z,6.35
2018-12-22T20:41:09.389Z,6.35
2018-12-22T20:43:47.997Z,6.36
2018-12-22T20:55:43.837Z,6.34
2018-12-22T21:04:32.691Z,6.28
2018-12-22T21:10:28.504Z,6.32
2018-12-22T21:13:02.054Z,6.33
2018-12-22T21:25:01.123Z,6.44
2018-12-22T21:27:45.396Z,6.51
2018-12-22T21:30:27.245Z,6.48
2018-12-22T21:36:11.634Z,6.57
2018-12-22T21:38:47.018Z,6.56
2018-12-22T21:50:32.292Z,6.67
2018-12-22T21:53:07.795Z,6.67
2018-12-22T21:58:39.051Z,6.64
2018-12-22T22:04:24.585Z,6.61
2018-12-22T22:07:06.734Z,6.62
2018-12-22T22:12:44.269Z,6.65
2018-12-22T22:15:34.462Z,6.62
2018-12-22T22:18:14.826Z,6.48
2018-12-22T22:20:46.660Z,6.44
2018-12-22T22:23:19.344Z,6.49
2018-12-22T22:26:16.318Z,6.52
2018-12-22T22:28:51.307Z,6.65
2018-12-22T22:34:45.545Z,6.69
2018-12-22T22:49:40.261Z,6.95
2018-12-22T22:52:30.943Z,7.01
2018-12-22T22:55:07.533Z,7.01
2018-12-22T22:58:01.177Z,6.95
2018-12-22T23:00:41.504Z,6.95
2018-12-22T23:03:23.545Z,6.87
2018-12-22T23:09:16.917Z,6.94
2018-12-22T23:14:45.891Z,7.04
2018-12-22T23:17:15.745Z,7.05
2018-12-22T23:19:57.264Z,7.08
2018-12-22T23:22:27.064Z,7.16
2018-12-22T23:25:02.271Z,7.16
2018-12-22T23:27:31.985Z,7.16
2018-12-22T23:30:01.828Z,7.25
2018-12-22T23:32:31.171Z,7.23
2018-12-22T23:35:03.030Z,7.36
2018-12-22T23:37:39.240Z,7.40
2018-12-22T23:46:20.544Z,7.50
2018-12-22T23:48:49.947Z,7.35
2018-12-22T23:51:20.034Z,7.26
2018-12-22T23:53:49.683Z,7.21
2018-12-22T23:56:33.432Z,7.09
